createdAt,value
2018-08-20T00:00:51.972Z,12.37
2018-08-20T00:03:19.910Z,13.20
2018-08-20T00:05:51.996Z,11.37
2018-08-20T00:08:20.341Z,12.20
2018-08-20T00:10:51.648Z,11.77
2018-08-20T00:13:20.413Z,11.13
2018-08-20T00:15:48.360Z,12.33
2018-08-20T00:18:21.633Z,10.67
2018-08-20T00:20:50.601Z,12.90
2018-08-20T00:23:19.329Z,12.17
2018-08-20T00:25:47.693Z,13.33
2018-08-20T00:28:16.130Z,12.47
2018-08-20T00:30:44.081Z,12.07
2018-08-20T00:33:12.306Z,12.10
2018-08-20T00:35:41.191Z,12.50
2018-08-20T00:38:09.160Z,11.77
2018-08-20T00:40:37.493Z,12.17
2018-08-20T00:43:05.778Z,12.60
2018-08-20T00:45:34.120Z,12.07
2018-08-20T00:48:02.839Z,13.03
2018-08-20T00:50:31.577Z,12.27
2018-08-20T00:53:00.952Z,12.03
2018-08-20T00:55:28.917Z,10.87
2018-08-20T00:57:57.277Z,12.60
2018-08-20T01:00:25.961Z,12.87
2018-08-20T01:02:53.921Z,13.47
2018-08-20T01:05:22.269Z,11.63
2018-08-20T01:07:51.570Z,11.90
2018-08-20T01:10:19.462Z,13.53
2018-08-20T01:12:48.121Z,13.20
2018-08-20T01:15:16.843Z,12.50
2018-08-20T01:17:45.188Z,14.13
2018-08-20T01:20:14.331Z,14.00
2018-08-20T01:22:42.667Z,12.20
2018-08-20T01:25:11.393Z,12.00
2018-08-20T01:27:39.566Z,13.27
2018-08-20T01:30:08.352Z,14.03
2018-08-20T01:32:36.726Z,13.70
2018-08-20T01:35:18.159Z,13.43
2018-08-20T01:37:46.516Z,12.90
2018-08-20T01:40:14.785Z,13.70
2018-08-20T01:42:43.104Z,15.50
2018-08-20T01:45:11.079Z,13.20
2018-08-20T01:47:39.720Z,13.43
2018-08-20T01:50:08.793Z,13.00
2018-08-20T01:52:36.764Z,13.00
2018-08-20T01:55:05.413Z,13.50
2018-08-20T01:57:33.797Z,14.03
2018-08-20T02:00:02.797Z,14.70
2018-08-20T02:02:31.201Z,14.23
2018-08-20T02:05:00.302Z,14.87
2018-08-20T02:07:28.956Z,14.37
2018-08-20T02:09:58.281Z,14.80
2018-08-20T02:12:26.505Z,13.83
2018-08-20T02:14:55.197Z,13.07
2018-08-20T02:17:24.693Z,13.93
2018-08-20T02:19:53.436Z,14.70
2018-08-20T02:22:22.241Z,13.83
2018-08-20T02:24:50.201Z,13.77
2018-08-20T02:27:18.065Z,15.00
2018-08-20T02:29:47.836Z,14.73
2018-08-20T02:32:15.813Z,15.77
2018-08-20T02:34:45.056Z,14.53
2018-08-20T02:37:13.416Z,15.47
2018-08-20T02:39:41.745Z,14.60
2018-08-20T02:42:10.385Z,15.20
2018-08-20T02:44:44.948Z,15.27
2018-08-20T02:47:14.209Z,14.37
2018-08-20T02:49:42.997Z,14.83
2018-08-20T02:52:11.785Z,15.17
2018-08-20T02:54:40.073Z,15.10
2018-08-20T02:57:08.504Z,14.70
2018-08-20T02:59:37.025Z,17.00
2018-08-20T03:02:05.271Z,16.13
2018-08-20T03:04:34.053Z,15.93
2018-08-20T03:07:02.464Z,15.87
2018-08-20T03:09:31.154Z,15.93
2018-08-20T03:11:59.538Z,15.03
2018-08-20T03:14:27.916Z,16.67
2018-08-20T03:17:11.069Z,16.47
2018-08-20T03:19:39.821Z,17.10
2018-08-20T03:22:07.773Z,16.87
2018-08-20T03:24:36.493Z,16.10
2018-08-20T03:27:05.341Z,15.73
2018-08-20T03:29:33.546Z,18.27
2018-08-20T03:32:02.804Z,17.87
2018-08-20T03:34:30.709Z,17.83
2018-08-20T03:36:59.420Z,16.90
2018-08-20T03:39:27.357Z,15.70
2018-08-20T03:41:56.008Z,20.10
2018-08-20T03:44:24.317Z,16.17
2018-08-20T03:46:52.697Z,17.63
2018-08-20T03:49:21.397Z,16.37
2018-08-20T03:51:50.253Z,18.13
2018-08-20T03:54:18.573Z,18.53
2018-08-20T03:56:47.277Z,16.97
2018-08-20T03:59:29.865Z,17.73
2018-08-20T04:01:59.429Z,18.30
2018-08-20T04:04:27.872Z,18.53
2018-08-20T04:06:57.023Z,17.20
2018-08-20T04:09:25.518Z,17.80
2018-08-20T04:11:54.325Z,17.03
2018-08-20T04:14:23.209Z,18.30
2018-08-20T04:16:51.913Z,18.70
2018-08-20T04:19:20.064Z,16.43
2018-08-20T04:21:48.481Z,17.93
2018-08-20T04:24:17.142Z,18.10
2018-08-20T04:26:46.229Z,17.50
2018-08-20T04:29:14.458Z,17.30
2018-08-20T04:31:42.396Z,20.30
2018-08-20T04:34:10.421Z,16.57
2018-08-20T04:36:38.917Z,17.57
2018-08-20T04:39:08.045Z,15.33
2018-08-20T04:41:37.338Z,16.83
2018-08-20T04:44:06.213Z,15.10
2018-08-20T04:46:35.274Z,16.60
2018-08-20T04:49:03.550Z,17.93
2018-08-20T04:51:31.922Z,17.00
2018-08-20T04:54:00.537Z,17.63
2018-08-20T04:56:29.008Z,15.40
2018-08-20T04:58:57.000Z,16.73
2018-08-20T05:01:25.369Z,14.97
2018-08-20T05:03:53.829Z,16.43
2018-08-20T05:06:22.541Z,16.53
2018-08-20T05:08:50.508Z,14.70
2018-08-20T05:11:18.499Z,16.00
2018-08-20T05:13:46.445Z,14.93
2018-08-20T05:16:14.740Z,14.00
2018-08-20T05:18:43.109Z,14.57
2018-08-20T05:21:11.065Z,15.93
2018-08-20T05:23:39.000Z,15.87
2018-08-20T05:26:07.721Z,16.23
2018-08-20T05:28:35.673Z,14.70
2018-08-20T05:31:03.976Z,14.03
2018-08-20T05:33:32.861Z,14.77
2018-08-20T05:36:01.133Z,14.73
2018-08-20T05:38:29.482Z,14.77
2018-08-20T05:40:57.479Z,15.20
2018-08-20T05:43:26.581Z,14.67
2018-08-20T05:45:55.493Z,14.03
2018-08-20T05:48:24.093Z,13.03
2018-08-20T05:50:52.464Z,14.97
2018-08-20T05:53:20.411Z,14.60
2018-08-20T05:55:48.380Z,13.27
2018-08-20T05:58:17.505Z,14.50
2018-08-20T06:00:45.829Z,13.03
2018-08-20T06:03:13.830Z,12.73
2018-08-20T06:05:42.570Z,14.07
2018-08-20T06:08:10.954Z,12.20
2018-08-20T06:10:39.308Z,12.43
2018-08-20T06:13:07.754Z,13.40
2018-08-20T06:15:35.738Z,12.70
2018-08-20T06:18:04.093Z,13.33
2018-08-20T06:20:32.577Z,11.20
2018-08-20T06:23:00.952Z,12.40
2018-08-20T06:25:28.933Z,11.97
2018-08-20T06:27:57.241Z,10.73
2018-08-20T06:30:25.528Z,10.10
2018-08-20T06:32:54.569Z,9.30
2018-08-20T06:35:22.769Z,9.43
2018-08-20T06:37:51.177Z,9.37
2018-08-20T06:40:19.588Z,9.10
2018-08-20T06:42:48.018Z,8.17
2018-08-20T06:45:16.716Z,7.87
2018-08-20T06:47:45.689Z,7.70
2018-08-20T06:50:14.980Z,7.57
2018-08-20T06:52:43.993Z,8.37
2018-08-20T06:55:12.781Z,8.00
2018-08-20T06:57:41.333Z,8.67
2018-08-20T07:00:10.842Z,8.87
2018-08-20T07:02:38.923Z,10.07
2018-08-20T07:05:07.832Z,8.40
2018-08-20T07:07:37.694Z,9.70
2018-08-20T07:10:07.453Z,8.20
2018-08-20T07:12:36.242Z,9.33
2018-08-20T07:15:04.361Z,9.67
2018-08-20T07:17:32.773Z,10.03
2018-08-20T07:20:01.509Z,9.87
2018-08-20T07:22:29.681Z,9.13
2018-08-20T07:24:57.997Z,7.77
2018-08-20T07:27:26.273Z,5.80
2018-08-20T07:29:54.697Z,5.73
2018-08-20T07:32:23.501Z,5.73
2018-08-20T07:34:51.917Z,5.17
2018-08-20T07:37:19.788Z,5.43
2018-08-20T07:39:48.409Z,6.30
2018-08-20T07:42:16.343Z,4.30
2018-08-20T07:44:45.200Z,5.50
2018-08-20T07:47:13.405Z,4.70
2018-08-20T07:49:41.326Z,5.53
2018-08-20T07:52:10.525Z,6.80
2018-08-20T07:54:39.672Z,4.50
2018-08-20T07:57:09.181Z,7.57
2018-08-20T07:59:37.284Z,4.90
2018-08-20T08:02:05.533Z,5.20
2018-08-20T08:04:33.877Z,4.70
2018-08-20T08:07:02.487Z,7.40
2018-08-20T08:09:31.805Z,5.87
2018-08-20T08:11:59.714Z,5.67
2018-08-20T08:14:28.453Z,5.10
2018-08-20T08:16:57.125Z,5.40
2018-08-20T08:19:25.777Z,5.00
2018-08-20T08:21:53.676Z,6.87
2018-08-20T08:24:21.544Z,5.50
2018-08-20T08:26:50.868Z,5.90
2018-08-20T08:29:18.718Z,6.93
2018-08-20T08:31:47.048Z,7.53
2018-08-20T08:34:15.735Z,5.73
2018-08-20T08:36:44.465Z,7.80
2018-08-20T08:39:12.312Z,9.27
2018-08-20T08:41:40.814Z,8.73
2018-08-20T08:44:09.221Z,6.93
2018-08-20T08:46:37.188Z,5.07
2018-08-20T08:49:05.609Z,5.63
2018-08-20T08:51:33.584Z,4.13
2018-08-20T08:54:01.550Z,4.43
2018-08-20T08:56:29.967Z,7.93
2018-08-20T08:58:58.369Z,4.87
2018-08-20T09:01:26.677Z,5.27
2018-08-20T09:03:54.994Z,5.03
2018-08-20T09:06:22.946Z,4.40
2018-08-20T09:08:51.241Z,4.47
2018-08-20T09:11:20.142Z,4.50
2018-08-20T09:13:48.107Z,3.83
2018-08-20T09:16:16.441Z,3.93
2018-08-20T09:18:44.791Z,4.70
2018-08-20T09:21:13.138Z,4.00
2018-08-20T09:23:41.522Z,4.60
2018-08-20T09:26:09.451Z,4.90
2018-08-20T09:28:37.650Z,5.20
2018-08-20T09:31:06.990Z,6.30
2018-08-20T09:33:36.918Z,5.10
2018-08-20T09:36:05.365Z,6.13
2018-08-20T09:38:33.737Z,5.40
2018-08-20T09:41:01.677Z,4.00
2018-08-20T09:43:30.658Z,4.97
2018-08-20T09:45:58.997Z,5.40
2018-08-20T09:48:28.274Z,4.50
2018-08-20T09:50:59.660Z,6.87
2018-08-20T09:53:27.770Z,4.80
2018-08-20T09:55:56.483Z,6.00
2018-08-20T09:58:26.501Z,4.77
2018-08-20T10:00:54.779Z,4.97
2018-08-20T10:03:22.713Z,5.43
2018-08-20T10:05:51.121Z,6.53
2018-08-20T10:08:19.052Z,5.13
2018-08-20T10:10:48.101Z,6.70
2018-08-20T10:13:16.583Z,5.50
2018-08-20T10:15:44.812Z,5.57
2018-08-20T10:18:13.123Z,5.63
2018-08-20T10:20:41.050Z,4.93
2018-08-20T10:23:09.000Z,4.80
2018-08-20T10:25:37.478Z,5.70
2018-08-20T10:28:05.815Z,7.30
2018-08-20T10:30:34.765Z,9.40
2018-08-20T10:33:03.090Z,5.03
2018-08-20T10:35:31.001Z,5.20
2018-08-20T10:37:59.308Z,5.10
2018-08-20T10:40:27.276Z,5.23
2018-08-20T10:42:55.649Z,6.77
2018-08-20T10:46:30.421Z,5.30
2018-08-20T10:48:58.701Z,6.00
2018-08-20T10:51:27.374Z,7.20
2018-08-20T10:53:55.809Z,5.23
2018-08-20T10:56:24.182Z,5.87
2018-08-20T10:58:52.921Z,5.87
2018-08-20T11:01:22.226Z,4.90
2018-08-20T11:03:58.585Z,5.13
2018-08-20T11:06:28.198Z,7.77
2018-08-20T11:08:57.729Z,6.17
2018-08-20T11:11:26.798Z,5.47
2018-08-20T11:13:55.752Z,6.23
2018-08-20T11:16:24.130Z,5.60
2018-08-20T11:18:52.558Z,5.37
2018-08-20T11:21:21.133Z,6.70
2018-08-20T11:23:49.432Z,5.63
2018-08-20T11:26:17.378Z,5.67
2018-08-20T11:28:45.298Z,8.90
2018-08-20T11:31:14.252Z,5.13
2018-08-20T11:33:42.611Z,6.40
2018-08-20T11:36:11.385Z,6.10
2018-08-20T11:38:40.197Z,6.13
2018-08-20T11:41:08.614Z,5.87
2018-08-20T11:43:36.646Z,6.97
2018-08-20T11:46:06.062Z,5.43
2018-08-20T11:48:34.390Z,6.83
2018-08-20T11:51:02.736Z,6.50
2018-08-20T11:53:31.081Z,5.60
2018-08-20T11:55:59.413Z,5.17
2018-08-20T11:58:30.297Z,6.10
2018-08-20T12:00:58.730Z,5.17
2018-08-20T12:03:26.665Z,7.27
2018-08-20T12:05:55.022Z,5.57
2018-08-20T12:08:23.090Z,5.87
2018-08-20T12:10:51.435Z,5.57
2018-08-20T12:13:19.357Z,5.80
2018-08-20T12:15:48.025Z,7.97
2018-08-20T12:18:16.379Z,5.50
2018-08-20T12:20:44.791Z,5.87
2018-08-20T12:23:12.793Z,6.77
2018-08-20T12:25:41.101Z,7.00
2018-08-20T12:28:09.733Z,9.00
2018-08-20T12:30:38.513Z,6.53
2018-08-20T12:33:06.196Z,6.23
2018-08-20T12:35:34.472Z,5.87
2018-08-20T12:38:03.238Z,6.17
2018-08-20T12:40:31.750Z,5.73
2018-08-20T12:43:00.786Z,5.23
2018-08-20T12:45:29.601Z,5.50
2018-08-20T12:47:58.417Z,5.30
2018-08-20T12:50:26.353Z,5.40
2018-08-20T12:52:55.581Z,5.37
2018-08-20T12:55:24.654Z,5.50
2018-08-20T12:57:53.776Z,5.50
2018-08-20T13:00:23.441Z,5.13
2018-08-20T13:02:52.613Z,4.90
2018-08-20T13:05:21.476Z,4.73
2018-08-20T13:07:50.849Z,4.67
2018-08-20T13:10:19.325Z,4.47
2018-08-20T13:12:48.732Z,4.33
2018-08-20T13:15:17.570Z,4.50
2018-08-20T13:17:49.242Z,4.40
2018-08-20T13:20:22.666Z,5.20
2018-08-20T13:22:53.404Z,3.73
2018-08-20T13:25:25.917Z,4.80
2018-08-20T13:27:56.799Z,4.77
2018-08-20T13:30:29.921Z,4.57
2018-08-20T13:33:01.067Z,5.23
2018-08-20T13:35:33.366Z,5.33
2018-08-20T13:38:04.266Z,4.63
2018-08-20T13:40:35.609Z,4.67
2018-08-20T13:43:06.696Z,4.77
2018-08-20T13:45:37.606Z,4.63
2018-08-20T13:48:08.753Z,4.53
2018-08-20T13:50:39.962Z,4.83
2018-08-20T13:53:12.310Z,5.93
2018-08-20T13:55:43.669Z,5.50
2018-08-20T13:58:15.161Z,5.57
2018-08-20T14:00:45.850Z,5.17
2018-08-20T14:03:16.782Z,5.30
2018-08-20T14:05:47.115Z,6.30
2018-08-20T14:08:19.548Z,5.20
2018-08-20T14:10:51.013Z,4.70
2018-08-20T14:13:22.591Z,5.23
2018-08-20T14:15:53.692Z,4.00
2018-08-20T14:18:25.269Z,5.73
2018-08-20T14:21:09.877Z,4.73
2018-08-20T14:23:43.592Z,4.93
2018-08-20T14:26:14.089Z,7.50
2018-08-20T14:28:46.625Z,4.37
2018-08-20T14:31:18.419Z,4.77
2018-08-20T14:33:49.261Z,4.27
2018-08-20T14:36:20.560Z,5.80
2018-08-20T14:38:51.077Z,5.30
2018-08-20T14:41:21.405Z,5.23
2018-08-20T14:43:52.838Z,5.73
2018-08-20T14:46:24.657Z,5.00
2018-08-20T14:48:56.247Z,4.93
2018-08-20T14:51:27.347Z,5.10
2018-08-20T14:53:58.166Z,5.87
2018-08-20T14:56:28.993Z,5.63
2018-08-20T14:58:59.647Z,5.70
2018-08-20T15:01:31.061Z,5.93
2018-08-20T15:04:02.611Z,9.30
2018-08-20T15:06:33.873Z,5.47
2018-08-20T15:09:04.154Z,6.10
2018-08-20T15:11:35.228Z,5.70
2018-08-20T15:14:05.413Z,5.93
2018-08-20T15:16:36.580Z,5.40
2018-08-20T15:19:07.838Z,5.73
2018-08-20T15:21:39.300Z,4.80
2018-08-20T15:24:10.046Z,4.63
2018-08-20T15:26:41.393Z,5.93
2018-08-20T15:29:12.445Z,5.13
2018-08-20T15:31:43.964Z,5.03
2018-08-20T15:34:15.161Z,6.70
2018-08-20T15:36:46.618Z,4.70
2018-08-20T15:41:55.381Z,4.90
2018-08-20T15:44:26.963Z,5.33
2018-08-20T15:46:57.803Z,4.40
2018-08-20T15:49:29.501Z,4.30
2018-08-20T15:52:00.214Z,5.20
2018-08-20T15:54:31.548Z,4.67
2018-08-20T15:57:03.317Z,5.33
2018-08-20T15:59:34.685Z,4.20
2018-08-20T16:02:05.873Z,4.60
2018-08-20T16:04:37.382Z,4.20
2018-08-20T16:07:08.838Z,4.77
2018-08-20T16:09:40.645Z,5.90
2018-08-20T16:12:12.798Z,4.47
2018-08-20T16:14:43.808Z,5.17
2018-08-20T16:17:15.842Z,4.80
2018-08-20T16:19:46.990Z,5.80
2018-08-20T16:22:18.373Z,5.20
2018-08-20T16:24:49.701Z,5.87
2018-08-20T16:27:22.064Z,5.50
2018-08-20T16:29:53.227Z,4.50
2018-08-20T16:32:24.253Z,4.40
2018-08-20T16:34:54.210Z,4.23
2018-08-20T16:37:26.057Z,6.07
2018-08-20T16:39:58.809Z,6.90
2018-08-20T16:42:32.233Z,5.43
2018-08-20T16:45:02.982Z,5.30
2018-08-20T16:47:34.965Z,6.03
2018-08-20T16:50:07.025Z,5.73
2018-08-20T16:52:38.036Z,8.40
2018-08-20T16:55:09.708Z,5.27
2018-08-20T16:57:40.749Z,5.50
2018-08-20T17:00:13.032Z,5.93
2018-08-20T17:02:45.074Z,5.70
2018-08-20T17:05:17.860Z,5.33
2018-08-20T17:07:48.821Z,5.63
2018-08-20T17:12:56.602Z,6.60
2018-08-20T17:15:28.109Z,6.13
2018-08-20T17:17:59.465Z,5.40
2018-08-20T17:20:30.373Z,5.60
2018-08-20T17:23:36.921Z,6.40
2018-08-20T17:26:08.692Z,6.37
2018-08-20T17:28:40.187Z,6.30
2018-08-20T17:31:14.318Z,6.33
2018-08-20T17:33:48.225Z,6.57
2018-08-20T17:36:20.425Z,6.03
2018-08-20T17:39:02.404Z,6.40
2018-08-20T17:41:34.089Z,8.13
2018-08-20T17:46:47.106Z,6.03
2018-08-20T17:49:28.698Z,6.23
2018-08-20T17:52:00.449Z,7.60
2018-08-20T17:54:34.144Z,7.23
2018-08-20T17:57:09.261Z,6.83
2018-08-20T18:00:01.156Z,7.07
2018-08-20T18:02:33.460Z,12.83
2018-08-20T18:05:05.669Z,7.90
2018-08-20T18:07:40.769Z,7.20
2018-08-20T18:10:11.629Z,7.33
2018-08-20T18:12:45.252Z,11.13
2018-08-20T18:15:17.129Z,6.60
2018-08-20T18:17:48.787Z,7.83
2018-08-20T18:20:20.456Z,7.20
2018-08-20T18:22:51.035Z,6.87
2018-08-20T18:25:23.744Z,8.77
2018-08-20T18:28:00.178Z,7.37
2018-08-20T18:30:30.943Z,7.17
2018-08-20T18:33:02.978Z,9.57
2018-08-20T18:35:36.733Z,7.13
2018-08-20T18:38:12.252Z,7.90
2018-08-20T18:40:43.752Z,7.53
2018-08-20T18:43:16.556Z,9.67
2018-08-20T18:45:48.553Z,12.00
2018-08-20T18:48:24.593Z,6.63
2018-08-20T18:50:55.978Z,7.03
2018-08-20T18:53:31.177Z,6.77
2018-08-20T18:56:11.407Z,8.33
2018-08-20T18:58:44.986Z,6.83
2018-08-20T19:01:18.908Z,7.77
2018-08-20T19:03:55.253Z,7.27
2018-08-20T19:06:27.048Z,8.60
2018-08-20T19:08:58.025Z,7.17
2018-08-20T19:11:34.477Z,7.10
2018-08-20T19:14:09.624Z,7.53
2018-08-20T19:16:42.517Z,7.83
2018-08-20T19:19:14.977Z,7.43
2018-08-20T19:21:46.555Z,7.53
2018-08-20T19:24:21.153Z,8.07
2018-08-20T19:26:59.179Z,7.37
2018-08-20T19:29:33.374Z,7.10
2018-08-20T19:32:06.014Z,6.60
2018-08-20T19:34:38.973Z,6.23
2018-08-20T19:37:11.872Z,6.27
2018-08-20T19:39:43.709Z,8.60
2018-08-20T19:42:23.743Z,6.10
2018-08-20T19:45:05.152Z,7.27
2018-08-20T19:47:36.310Z,6.03
2018-08-20T19:50:11.091Z,5.80
2018-08-20T19:52:47.703Z,6.00
2018-08-20T19:55:19.307Z,5.60
2018-08-20T19:57:54.866Z,6.17
2018-08-20T20:03:50.329Z,7.00
2018-08-20T20:06:21.989Z,6.87
2018-08-20T20:08:55.694Z,5.87
2018-08-20T20:11:31.640Z,9.27
2018-08-20T20:16:49.539Z,6.87
2018-08-20T20:19:20.206Z,6.90
2018-08-20T20:21:50.118Z,6.27
2018-08-20T20:24:22.022Z,6.70
2018-08-20T20:26:54.017Z,8.57
2018-08-20T20:29:26.118Z,6.83
2018-08-20T20:31:57.805Z,9.40
2018-08-20T20:34:29.412Z,7.00
2018-08-20T20:37:02.168Z,8.00
2018-08-20T20:39:32.901Z,9.27
2018-08-20T20:42:04.767Z,6.63
2018-08-20T20:44:38.793Z,7.17
2018-08-20T20:47:14.899Z,9.60
2018-08-20T20:49:46.568Z,7.70
2018-08-20T20:52:20.366Z,6.77
2018-08-20T20:54:51.300Z,7.57
2018-08-20T20:57:23.418Z,12.23
2018-08-20T20:59:58.689Z,7.87
2018-08-20T21:02:29.985Z,7.70
2018-08-20T21:05:10.129Z,7.30
2018-08-20T21:07:42.191Z,6.07
2018-08-20T21:10:14.878Z,6.37
2018-08-20T21:12:46.269Z,7.07
2018-08-20T21:15:17.794Z,7.80
2018-08-20T21:17:49.314Z,6.03
2018-08-20T21:20:21.493Z,7.13
2018-08-20T21:22:54.147Z,8.03
2018-08-20T21:25:25.613Z,6.37
2018-08-20T21:27:57.611Z,6.63
2018-08-20T21:30:32.981Z,7.13
2018-08-20T21:33:06.281Z,7.50
2018-08-20T21:35:38.429Z,6.33
2018-08-20T21:38:14.970Z,6.97
2018-08-20T21:40:46.391Z,11.03
2018-08-20T21:43:18.628Z,6.90
2018-08-20T21:45:50.129Z,9.10
2018-08-20T21:48:22.135Z,6.07
2018-08-20T21:50:54.038Z,7.77
2018-08-20T21:53:37.623Z,6.83
2018-08-20T21:56:14.337Z,7.27
2018-08-20T21:58:47.057Z,6.87
2018-08-20T22:01:21.743Z,6.67
2018-08-20T22:03:56.836Z,6.83
2018-08-20T22:06:31.922Z,7.63
2018-08-20T22:09:04.152Z,6.40
2018-08-20T22:11:36.400Z,7.00
2018-08-20T22:14:08.835Z,7.80
2018-08-20T22:16:40.721Z,8.77
2018-08-20T22:19:12.117Z,7.63
2018-08-20T22:21:44.616Z,8.30
2018-08-20T22:24:16.985Z,7.20
2018-08-20T22:27:05.314Z,9.40
2018-08-20T22:29:43.085Z,6.37
2018-08-20T22:32:14.639Z,6.10
2018-08-20T22:34:46.655Z,7.77
2018-08-20T22:37:21.065Z,6.93
2018-08-20T22:39:56.294Z,8.40
2018-08-20T22:42:44.517Z,8.10
2018-08-20T22:45:18.818Z,6.33
2018-08-20T22:47:51.732Z,6.27
2018-08-20T22:50:24.541Z,8.87
2018-08-20T22:52:54.904Z,7.07
2018-08-20T22:55:26.909Z,8.43
2018-08-20T22:58:10.133Z,7.70
2018-08-20T23:00:42.210Z,10.37
2018-08-20T23:03:14.609Z,6.77
2018-08-20T23:05:46.467Z,8.60
2018-08-20T23:08:19.400Z,8.50
2018-08-20T23:10:51.180Z,6.40
2018-08-20T23:13:23.678Z,8.60
2018-08-20T23:15:56.237Z,9.37
2018-08-20T23:18:27.552Z,8.23
2018-08-20T23:20:58.785Z,9.63
2018-08-20T23:23:36.288Z,7.20
2018-08-20T23:26:09.987Z,6.10
2018-08-20T23:28:42.877Z,6.33
2018-08-20T23:31:16.214Z,6.53
2018-08-20T23:33:48.513Z,7.50
2018-08-20T23:36:19.965Z,7.20
2018-08-20T23:38:51.689Z,10.60
2018-08-20T23:41:23.868Z,7.53
2018-08-20T23:43:59.876Z,7.13
2018-08-20T23:46:41.900Z,7.90
2018-08-20T23:49:12.640Z,12.57
2018-08-20T23:51:44.258Z,7.87
2018-08-20T23:54:16.461Z,6.67
2018-08-20T23:56:48.365Z,6.70
2018-08-20T23:59:20.913Z,8.20
